EDDR/SCN METAR and TAF weather

Enter ICAO airport designator
Station Type Date Time Source
EDDR METAR 2020/09/19 02:20 UTC NOAA

EDDR 190220Z 05009KT CAVOK 13/08 Q1018


Station Type Date Time Source
EDDR Decoded METAR 2020/09/19 02:20 UTC NOAA

Saarbruecken / Ensheim, Germany (EDDR) 49-13N 007-07E 320M
Sep 18, 2020 - 10:20 PM EDT / 2020.09.19 0220 UTC
Wind: from the NE (050 degrees) at 10 MPH (9 KT):0
Visibility: greater than 7 mile(s):0
Temperature: 55 F (13 C)
Dew Point: 46 F (8 C)
Relative Humidity: 71%
Pressure (altimeter): 30.06 in. Hg (1018 hPa)
ob: EDDR 190220Z 05009KT CAVOK 13/08 Q1018
cycle: 2

Station Type Date Time Source
EDDR TAF 2020/09/18 18:29 UTC NOAA

TAF EDDR 181700Z 1818/1918 08008KT CAVOK

Example: see airport list